MAPA DE AEROPUERTO

INFORMACIÓN METAR y TAF


Deprecated: The each() function is deprecated. This message will be suppressed on further calls in /home/customer/www/clickair-va.com/public_html/VAM/vam/helpers/get_metar.php on line 20
METAR FOR GCRR
ADDS - METARS form results

(2117 UTC 01 October 2022)
Data provider http://aviationweather.gov/metar/data/
 
METAR text: GCRR 012100Z 03010KT 9999 FEW025 23/18 Q1016
Conditions at: GCRR (ARRECIFE/LANZARO, ES) observed 2100 UTC 01 October 2022
Temperature: 23.0°C (73°F)
Dewpoint: 18.0°C (64°F) [RH = 73%]
Pressure (altimeter): 30.00 inches Hg (1016.0 mb)
Winds: from the NNE (30 degrees) at 12 MPH (10 knots; 5.1 m/s)
Visibility: 6 or more miles (10+ km)
Ceiling: at least 12,000 feet AGL
Clouds: few clouds at 2500 feet AGL
Weather: no significant weather observed at this time

METAR text: GCRR 012030Z 02015KT 9999 FEW025 23/18 Q1016
Conditions at: GCRR (ARRECIFE/LANZARO, ES) observed 2030 UTC 01 October 2022
Temperature: 23.0°C (73°F)
Dewpoint: 18.0°C (64°F) [RH = 73%]
Pressure (altimeter): 30.00 inches Hg (1016.0 mb)
Winds: from the NNE (20 degrees) at 17 MPH (15 knots; 7.7 m/s)
Visibility: 6 or more miles (10+ km)
Ceiling: at least 12,000 feet AGL
Clouds: few clouds at 2500 feet AGL
Weather: no significant weather observed at this time

Forecast for: GCRR (ARRECIFE/LANZARO, ES)
Text: TAF GCRR 012000Z 0121/0221 03018KT 9999 FEW025 TX29/0214Z TN20/0206Z
Forecast period: 2100 to 2200 UTC 01 October 2022
Forecast type: FROM: standard forecast or significant change
Winds: from the NNE (30 degrees) at 21 MPH (18 knots; 9.3 m/s)
Visibility: 6 or more miles (10+ km)
Ceiling: at least 12,000 feet AGL
Clouds: few clouds at 2500 feet AGL
Weather: no significant weather forecast for this period
Text: BECMG 0122/0201 01008KT
Forecast period: 2200 UTC 01 October 2022 to 0900 UTC 02 October 2022
Forecast type: BECOMING: Conditions expected to become as follows by 0100 UTC 02 October 2022
Winds: from the N (10 degrees) at 9 MPH (8 knots; 4.1 m/s)
Visibility: 6 or more miles (10+ km)
Ceiling: at least 12,000 feet AGL
Clouds: few clouds at 2500 feet AGL
Weather: no significant weather forecast for this period
Text: BECMG 0209/0212 13010KT
Forecast period: 0900 to 1700 UTC 02 October 2022
Forecast type: BECOMING: Conditions expected to become as follows by 1200 UTC 02 October 2022
Winds: from the SE (130 degrees) at 12 MPH (10 knots; 5.1 m/s)
Visibility: 6 or more miles (10+ km)
Ceiling: at least 12,000 feet AGL
Clouds: few clouds at 2500 feet AGL
Weather: no significant weather forecast for this period
Text: BECMG 0217/0219 01015KT
Forecast period: 1700 to 2100 UTC 02 October 2022
Forecast type: BECOMING: Conditions expected to become as follows by 1900 UTC 02 October 2022
Winds: from the N (10 degrees) at 17 MPH (15 knots; 7.7 m/s)
Visibility: 6 or more miles (10+ km)
Ceiling: at least 12,000 feet AGL
Clouds: few clouds at 2500 feet AGL
Weather: no significant weather forecast for this period